Detalii statie SCHWAB AGRO ARDUD [00001CF5]

Toti senzorii

Date Temperatura solului [C]Precipitatii [mm]Voltaj baterie [mV]Leaf Wetness [Min]HC Air temperature [C]HC Relative humidity [%]Punctul de roua [C]
medieminmaxsumaultimatimpmedieminmaxmediemediemin
2019-10-20 00:00:00 0 6864 11.81 11.59 11.99 100 11.7 11.5
2019-10-20 01:00:00 0 6834 11.45 11.32 11.63 100 11.4 11.3
2019-10-20 02:00:00 0 6844 10.9 10.21 11.51 100 10.8 10.2
2019-10-20 03:00:00 0 6834 10.04 9.76 10.28 100 9.9 9.7
2019-10-20 04:00:00 0 6826 9.84 9.31 10.4 100 9.8 9.3
2019-10-20 05:00:00 0 6834 10.74 9.69 11.62 100 10.7 9.6
2019-10-20 06:00:00 0 6826 9.25 8.84 9.63 100 9.2 8.8
2019-10-20 07:00:00 0 6806 9.36 8.86 9.81 100 9.3 8.8
2019-10-20 08:00:00 0 6816 10.21 9.5 11.73 100 10.1 9.5
2019-10-20 09:00:00 0 6834 15.21 12.6 18.16 97.6 14.7 12.6
2019-10-20 10:00:00 0 6884 19.83 18.43 21.07 77.18 15.6 15.3
2019-10-20 11:00:00 0 7098 22.32 21.12 23.75 69.74 16.3 15.9
2019-10-20 12:00:00 0 7176 24.18 23.8 24.68 65.64 17.1 16.7
2019-10-20 13:00:00 0 7186 25.44 24.9 26.42 60.7 17.1 16.8
2019-10-20 14:00:00 0 7186 25.88 25.42 26.5 58.93 17 16.7
2019-10-20 15:00:00 0 7148 25.23 24.52 25.7 60.48 16.8 16.5
2019-10-20 16:00:00 0 7020 24.29 23.6 25.22 63.03 16.6 16.3
2019-10-20 17:00:00 0 6932 22.83 21.44 23.74 68.19 16.5 15.9
2019-10-20 18:00:00 0 6904 19.59 18.39 21 75.67 15 14.6
2019-10-20 19:00:00 0 6884 17.28 16.47 18.21 83.26 14.3 13.9
2019-10-20 20:00:00 0 6874 15.39 14.49 16.11 90.37 13.6 13.4
2019-10-20 21:00:00 0 6864 14.18 13.8 14.57 97.94 13.7 13.5
2019-10-20 22:00:00 0 6864 13.28 12.59 13.99 100 13.2 12.5
2019-10-20 23:00:00 0 6874 12.9 12.52 13.21 100 12.8 12.5
2019-10-21 00:00:00 0 6874 12.83 12.27 13.3 100 12.8 12.2
2019-10-21 01:00:00 0 6854 12.16 11.6 12.97 100 12.1 11.6
2019-10-21 02:00:00 0 6854 11.14 10.79 11.48 100 11.1 10.7
2019-10-21 03:00:00 0 6854 10.79 10.51 11.71 100 10.7 10.5
2019-10-21 04:00:00 0 6854 10.73 10.22 11.44 100 10.6 10.2
2019-10-21 05:00:00 0 6854 10.51 10.23 10.81 100 10.4 10.2
2019-10-21 06:00:00 0 6826 10.94 10.57 11.27 100 10.8 10.5
2019-10-21 07:00:00 0 6844 10.88 10.15 11.38 100 10.8 10.1
2019-10-21 08:00:00 0 6816 10.94 9.99 12.8 100 10.9 9.9
2019-10-21 09:00:00 0 6844 15.75 13.39 17.99 95.3 14.8 13.3
2019-10-21 10:00:00 0 6894 20.28 18.43 21.88 76.24 15.8 15.3
2019-10-21 11:00:00 0 7118 22.87 22.11 24.4 68.18 16.5 15.9
2019-10-21 12:00:00 0 7186 24.48 23.81 25.37 62.99 16.8 16.3
2019-10-21 13:00:00 0 7206 25.42 25.11 25.71 59.8 16.8 16.4